sensor_id;sensor_type;location;lat;lon;timestamp;P1;durP1;ratioP1;P2;durP2;ratioP2
64467;SDS011;50853;46.836;16.820;2022-07-05T00:00:10;9.10;;;2.28;;
64467;SDS011;50853;46.836;16.820;2022-07-05T00:02:36;4.57;;;2.42;;
64467;SDS011;50853;46.836;16.820;2022-07-05T00:05:02;4.93;;;2.28;;
64467;SDS011;50853;46.836;16.820;2022-07-05T00:07:28;3.20;;;2.08;;
64467;SDS011;50853;46.836;16.820;2022-07-05T00:09:55;3.13;;;2.30;;
64467;SDS011;50853;46.836;16.820;2022-07-05T00:12:23;6.30;;;2.50;;
64467;SDS011;50853;46.836;16.820;2022-07-05T00:14:52;2.80;;;1.98;;
64467;SDS011;50853;46.836;16.820;2022-07-05T00:17:19;3.03;;;2.45;;
64467;SDS011;50853;46.836;16.820;2022-07-05T00:19:45;2.70;;;2.00;;
64467;SDS011;50853;46.836;16.820;2022-07-05T00:22:11;5.57;;;2.40;;
64467;SDS011;50853;46.836;16.820;2022-07-05T00:24:37;5.65;;;2.38;;
64467;SDS011;50853;46.836;16.820;2022-07-05T00:27:03;3.58;;;2.50;;
64467;SDS011;50853;46.836;16.820;2022-07-05T00:29:29;4.90;;;2.30;;
64467;SDS011;50853;46.836;16.820;2022-07-05T00:31:55;8.73;;;2.78;;
64467;SDS011;50853;46.836;16.820;2022-07-05T00:34:21;4.97;;;2.58;;
64467;SDS011;50853;46.836;16.820;2022-07-05T00:36:46;6.15;;;2.70;;
64467;SDS011;50853;46.836;16.820;2022-07-05T00:39:12;8.52;;;2.90;;
64467;SDS011;50853;46.836;16.820;2022-07-05T00:41:38;8.32;;;3.25;;
64467;SDS011;50853;46.836;16.820;2022-07-05T00:44:05;8.18;;;3.17;;
64467;SDS011;50853;46.836;16.820;2022-07-05T00:46:33;5.65;;;3.22;;
64467;SDS011;50853;46.836;16.820;2022-07-05T00:49:00;4.13;;;2.88;;
64467;SDS011;50853;46.836;16.820;2022-07-05T00:51:29;9.55;;;2.88;;
64467;SDS011;50853;46.836;16.820;2022-07-05T00:53:56;5.85;;;2.80;;
64467;SDS011;50853;46.836;16.820;2022-07-05T00:56:24;5.65;;;3.30;;
64467;SDS011;50853;46.836;16.820;2022-07-05T00:58:50;7.05;;;2.90;;
64467;SDS011;50853;46.836;16.820;2022-07-05T01:01:17;8.55;;;3.22;;
64467;SDS011;50853;46.836;16.820;2022-07-05T01:06:10;6.33;;;3.07;;
64467;SDS011;50853;46.836;16.820;2022-07-05T01:08:38;11.57;;;3.28;;
64467;SDS011;50853;46.836;16.820;2022-07-05T01:11:06;4.78;;;2.90;;
64467;SDS011;50853;46.836;16.820;2022-07-05T01:13:33;7.80;;;3.25;;
64467;SDS011;50853;46.836;16.820;2022-07-05T01:16:01;5.75;;;2.80;;
64467;SDS011;50853;46.836;16.820;2022-07-05T01:18:27;7.85;;;2.85;;
64467;SDS011;50853;46.836;16.820;2022-07-05T01:20:54;10.90;;;3.90;;
64467;SDS011;50853;46.836;16.820;2022-07-05T01:25:47;8.93;;;3.33;;
64467;SDS011;50853;46.836;16.820;2022-07-05T01:28:14;7.15;;;3.35;;
64467;SDS011;50853;46.836;16.820;2022-07-05T01:30:40;7.80;;;3.05;;
64467;SDS011;50853;46.836;16.820;2022-07-05T01:33:07;9.60;;;3.03;;
64467;SDS011;50853;46.836;16.820;2022-07-05T01:38:01;5.28;;;3.08;;
64467;SDS011;50853;46.836;16.820;2022-07-05T01:40:27;10.63;;;2.70;;
64467;SDS011;50853;46.836;16.820;2022-07-05T01:42:54;4.90;;;2.72;;
64467;SDS011;50853;46.836;16.820;2022-07-05T01:45:20;6.68;;;3.47;;
64467;SDS011;50853;46.836;16.820;2022-07-05T01:48:07;6.85;;;3.20;;
64467;SDS011;50853;46.836;16.820;2022-07-05T01:50:53;5.35;;;2.90;;
64467;SDS011;50853;46.836;16.820;2022-07-05T01:53:27;5.43;;;3.10;;
64467;SDS011;50853;46.836;16.820;2022-07-05T01:56:01;4.75;;;2.90;;
64467;SDS011;50853;46.836;16.820;2022-07-05T01:58:29;5.88;;;2.92;;
64467;SDS011;50853;46.836;16.820;2022-07-05T02:00:56;8.18;;;2.60;;
64467;SDS011;50853;46.836;16.820;2022-07-05T02:05:49;4.53;;;3.00;;
64467;SDS011;50853;46.836;16.820;2022-07-05T02:08:15;5.03;;;2.65;;
64467;SDS011;50853;46.836;16.820;2022-07-05T02:13:08;3.57;;;2.60;;
64467;SDS011;50853;46.836;16.820;2022-07-05T02:15:36;9.07;;;2.83;;
64467;SDS011;50853;46.836;16.820;2022-07-05T02:18:04;4.45;;;2.70;;
64467;SDS011;50853;46.836;16.820;2022-07-05T02:20:31;10.27;;;3.58;;
64467;SDS011;50853;46.836;16.820;2022-07-05T02:22:58;11.20;;;3.05;;
64467;SDS011;50853;46.836;16.820;2022-07-05T02:25:24;6.00;;;3.03;;
64467;SDS011;50853;46.836;16.820;2022-07-05T02:27:51;9.05;;;2.97;;
64467;SDS011;50853;46.836;16.820;2022-07-05T02:30:18;13.23;;;4.00;;
64467;SDS011;50853;46.836;16.820;2022-07-05T02:32:44;7.40;;;3.13;;
64467;SDS011;50853;46.836;16.820;2022-07-05T02:35:11;8.13;;;3.23;;
64467;SDS011;50853;46.836;16.820;2022-07-05T02:37:37;6.40;;;2.78;;
64467;SDS011;50853;46.836;16.820;2022-07-05T02:40:05;6.80;;;2.67;;
64467;SDS011;50853;46.836;16.820;2022-07-05T02:42:32;4.68;;;2.53;;
64467;SDS011;50853;46.836;16.820;2022-07-05T02:44:59;6.75;;;2.63;;
64467;SDS011;50853;46.836;16.820;2022-07-05T02:47:24;7.88;;;3.05;;
64467;SDS011;50853;46.836;16.820;2022-07-05T02:49:50;6.72;;;2.97;;
64467;SDS011;50853;46.836;16.820;2022-07-05T02:52:18;8.55;;;3.05;;
64467;SDS011;50853;46.836;16.820;2022-07-05T02:54:44;6.30;;;2.95;;
64467;SDS011;50853;46.836;16.820;2022-07-05T02:57:09;6.13;;;3.33;;
64467;SDS011;50853;46.836;16.820;2022-07-05T02:59:35;19.17;;;4.18;;
64467;SDS011;50853;46.836;16.820;2022-07-05T03:02:01;10.43;;;4.75;;
64467;SDS011;50853;46.836;16.820;2022-07-05T03:04:27;13.57;;;3.75;;
64467;SDS011;50853;46.836;16.820;2022-07-05T03:06:53;16.02;;;3.85;;
64467;SDS011;50853;46.836;16.820;2022-07-05T03:09:18;13.07;;;4.45;;
64467;SDS011;50853;46.836;16.820;2022-07-05T03:11:44;11.13;;;4.38;;
64467;SDS011;50853;46.836;16.820;2022-07-05T03:14:10;12.23;;;3.63;;
64467;SDS011;50853;46.836;16.820;2022-07-05T03:16:36;10.75;;;3.30;;
64467;SDS011;50853;46.836;16.820;2022-07-05T03:19:04;5.68;;;3.08;;
64467;SDS011;50853;46.836;16.820;2022-07-05T03:21:30;8.38;;;3.42;;
64467;SDS011;50853;46.836;16.820;2022-07-05T03:23:55;9.98;;;3.80;;
64467;SDS011;50853;46.836;16.820;2022-07-05T03:26:21;5.88;;;3.42;;
64467;SDS011;50853;46.836;16.820;2022-07-05T03:28:47;12.32;;;3.40;;
64467;SDS011;50853;46.836;16.820;2022-07-05T03:31:13;6.80;;;3.35;;
64467;SDS011;50853;46.836;16.820;2022-07-05T03:33:39;9.85;;;3.63;;
64467;SDS011;50853;46.836;16.820;2022-07-05T03:36:05;11.60;;;4.43;;
64467;SDS011;50853;46.836;16.820;2022-07-05T03:38:31;9.55;;;4.15;;
64467;SDS011;50853;46.836;16.820;2022-07-05T03:40:58;9.23;;;4.25;;
64467;SDS011;50853;46.836;16.820;2022-07-05T03:43:25;6.25;;;3.08;;
64467;SDS011;50853;46.836;16.820;2022-07-05T03:45:50;5.85;;;2.95;;
64467;SDS011;50853;46.836;16.820;2022-07-05T03:48:16;8.32;;;3.05;;
64467;SDS011;50853;46.836;16.820;2022-07-05T03:50:42;7.65;;;3.10;;
64467;SDS011;50853;46.836;16.820;2022-07-05T03:53:08;11.10;;;3.35;;
64467;SDS011;50853;46.836;16.820;2022-07-05T03:55:33;8.55;;;3.13;;
64467;SDS011;50853;46.836;16.820;2022-07-05T03:57:59;5.75;;;3.00;;
64467;SDS011;50853;46.836;16.820;2022-07-05T04:00:25;5.68;;;2.50;;
64467;SDS011;50853;46.836;16.820;2022-07-05T04:02:51;3.67;;;2.40;;
64467;SDS011;50853;46.836;16.820;2022-07-05T04:05:17;7.20;;;2.42;;
64467;SDS011;50853;46.836;16.820;2022-07-05T04:07:47;3.72;;;2.42;;
64467;SDS011;50853;46.836;16.820;2022-07-05T04:10:14;7.05;;;2.97;;
64467;SDS011;50853;46.836;16.820;2022-07-05T04:12:40;7.22;;;3.10;;
64467;SDS011;50853;46.836;16.820;2022-07-05T04:15:07;10.52;;;3.28;;
64467;SDS011;50853;46.836;16.820;2022-07-05T04:17:33;5.50;;;2.78;;
64467;SDS011;50853;46.836;16.820;2022-07-05T04:19:59;6.68;;;3.08;;
64467;SDS011;50853;46.836;16.820;2022-07-05T04:22:25;5.70;;;2.78;;
64467;SDS011;50853;46.836;16.820;2022-07-05T04:24:51;4.15;;;2.55;;
64467;SDS011;50853;46.836;16.820;2022-07-05T04:27:35;6.50;;;3.30;;
64467;SDS011;50853;46.836;16.820;2022-07-05T04:30:01;7.38;;;3.03;;
64467;SDS011;50853;46.836;16.820;2022-07-05T04:32:27;5.47;;;3.10;;
64467;SDS011;50853;46.836;16.820;2022-07-05T04:34:53;4.22;;;3.08;;
64467;SDS011;50853;46.836;16.820;2022-07-05T04:37:19;4.85;;;2.70;;
64467;SDS011;50853;46.836;16.820;2022-07-05T04:39:44;7.50;;;3.22;;
64467;SDS011;50853;46.836;16.820;2022-07-05T04:42:10;5.70;;;3.60;;
64467;SDS011;50853;46.836;16.820;2022-07-05T04:44:36;5.70;;;3.13;;
64467;SDS011;50853;46.836;16.820;2022-07-05T04:47:02;6.10;;;3.25;;
64467;SDS011;50853;46.836;16.820;2022-07-05T04:49:28;5.72;;;3.10;;
64467;SDS011;50853;46.836;16.820;2022-07-05T04:51:54;5.25;;;3.65;;
64467;SDS011;50853;46.836;16.820;2022-07-05T04:54:20;9.95;;;3.25;;
64467;SDS011;50853;46.836;16.820;2022-07-05T04:56:46;5.88;;;3.20;;
64467;SDS011;50853;46.836;16.820;2022-07-05T04:59:12;4.18;;;2.97;;
64467;SDS011;50853;46.836;16.820;2022-07-05T05:01:38;6.00;;;3.05;;
64467;SDS011;50853;46.836;16.820;2022-07-05T05:04:04;5.57;;;3.15;;
64467;SDS011;50853;46.836;16.820;2022-07-05T05:06:29;6.43;;;3.25;;
64467;SDS011;50853;46.836;16.820;2022-07-05T05:21:02;4.43;;;2.78;;
64467;SDS011;50853;46.836;16.820;2022-07-05T05:23:29;8.13;;;3.20;;
64467;SDS011;50853;46.836;16.820;2022-07-05T05:25:55;8.85;;;3.30;;
64467;SDS011;50853;46.836;16.820;2022-07-05T05:28:20;5.40;;;3.47;;
64467;SDS011;50853;46.836;16.820;2022-07-05T05:30:46;6.80;;;3.40;;
64467;SDS011;50853;46.836;16.820;2022-07-05T05:33:12;5.82;;;3.30;;
64467;SDS011;50853;46.836;16.820;2022-07-05T05:35:38;4.55;;;3.10;;
64467;SDS011;50853;46.836;16.820;2022-07-05T05:38:04;6.32;;;3.05;;
64467;SDS011;50853;46.836;16.820;2022-07-05T05:40:30;5.82;;;3.22;;
64467;SDS011;50853;46.836;16.820;2022-07-05T05:42:58;5.75;;;3.17;;
64467;SDS011;50853;46.836;16.820;2022-07-05T05:45:24;5.75;;;2.88;;
64467;SDS011;50853;46.836;16.820;2022-07-05T05:50:19;6.47;;;3.40;;
64467;SDS011;50853;46.836;16.820;2022-07-05T05:52:49;4.55;;;3.17;;
64467;SDS011;50853;46.836;16.820;2022-07-05T05:55:16;5.05;;;2.67;;
64467;SDS011;50853;46.836;16.820;2022-07-05T05:57:43;4.45;;;2.90;;
64467;SDS011;50853;46.836;16.820;2022-07-05T06:00:09;5.88;;;3.35;;
64467;SDS011;50853;46.836;16.820;2022-07-05T06:02:36;5.63;;;3.08;;
64467;SDS011;50853;46.836;16.820;2022-07-05T06:05:02;5.90;;;3.17;;
64467;SDS011;50853;46.836;16.820;2022-07-05T06:07:28;3.88;;;2.88;;
64467;SDS011;50853;46.836;16.820;2022-07-05T06:09:54;4.32;;;2.63;;
64467;SDS011;50853;46.836;16.820;2022-07-05T06:12:20;8.40;;;3.08;;
64467;SDS011;50853;46.836;16.820;2022-07-05T06:14:46;3.45;;;2.40;;
64467;SDS011;50853;46.836;16.820;2022-07-05T06:17:12;5.55;;;3.47;;
64467;SDS011;50853;46.836;16.820;2022-07-05T06:19:38;8.18;;;3.38;;
64467;SDS011;50853;46.836;16.820;2022-07-05T06:22:04;6.03;;;3.15;;
64467;SDS011;50853;46.836;16.820;2022-07-05T06:24:29;4.93;;;2.40;;
64467;SDS011;50853;46.836;16.820;2022-07-05T06:26:55;3.80;;;2.58;;
64467;SDS011;50853;46.836;16.820;2022-07-05T06:29:21;6.80;;;2.80;;
64467;SDS011;50853;46.836;16.820;2022-07-05T06:31:47;2.85;;;2.40;;
64467;SDS011;50853;46.836;16.820;2022-07-05T06:34:12;4.78;;;2.80;;
64467;SDS011;50853;46.836;16.820;2022-07-05T06:36:38;3.90;;;2.70;;
64467;SDS011;50853;46.836;16.820;2022-07-05T06:39:04;3.95;;;2.55;;
64467;SDS011;50853;46.836;16.820;2022-07-05T06:41:30;5.10;;;3.35;;
64467;SDS011;50853;46.836;16.820;2022-07-05T06:43:56;4.55;;;2.45;;
64467;SDS011;50853;46.836;16.820;2022-07-05T06:46:23;4.55;;;3.03;;
64467;SDS011;50853;46.836;16.820;2022-07-05T06:48:49;4.95;;;3.53;;
64467;SDS011;50853;46.836;16.820;2022-07-05T06:51:16;4.13;;;2.92;;
64467;SDS011;50853;46.836;16.820;2022-07-05T06:53:41;6.10;;;4.03;;
64467;SDS011;50853;46.836;16.820;2022-07-05T06:56:07;4.15;;;2.90;;
64467;SDS011;50853;46.836;16.820;2022-07-05T06:58:33;5.75;;;3.17;;
64467;SDS011;50853;46.836;16.820;2022-07-05T07:00:59;7.28;;;3.90;;
64467;SDS011;50853;46.836;16.820;2022-07-05T07:03:25;8.18;;;3.45;;
64467;SDS011;50853;46.836;16.820;2022-07-05T07:05:50;5.50;;;3.63;;
64467;SDS011;50853;46.836;16.820;2022-07-05T07:08:16;6.85;;;3.22;;
64467;SDS011;50853;46.836;16.820;2022-07-05T07:11:01;10.02;;;3.67;;
64467;SDS011;50853;46.836;16.820;2022-07-05T07:13:26;7.45;;;3.90;;
64467;SDS011;50853;46.836;16.820;2022-07-05T07:15:52;6.32;;;3.60;;
64467;SDS011;50853;46.836;16.820;2022-07-05T07:18:18;6.28;;;4.25;;
64467;SDS011;50853;46.836;16.820;2022-07-05T07:20:44;5.50;;;3.70;;
64467;SDS011;50853;46.836;16.820;2022-07-05T07:23:10;7.97;;;4.15;;
64467;SDS011;50853;46.836;16.820;2022-07-05T07:25:36;7.30;;;3.40;;
64467;SDS011;50853;46.836;16.820;2022-07-05T07:28:02;6.38;;;3.95;;
64467;SDS011;50853;46.836;16.820;2022-07-05T07:30:30;6.80;;;3.20;;
64467;SDS011;50853;46.836;16.820;2022-07-05T07:32:55;5.03;;;3.38;;
64467;SDS011;50853;46.836;16.820;2022-07-05T07:35:22;5.13;;;3.65;;
64467;SDS011;50853;46.836;16.820;2022-07-05T07:37:48;6.65;;;3.63;;
64467;SDS011;50853;46.836;16.820;2022-07-05T07:40:14;9.20;;;3.87;;
64467;SDS011;50853;46.836;16.820;2022-07-05T07:42:40;7.60;;;3.05;;
64467;SDS011;50853;46.836;16.820;2022-07-05T07:45:07;5.97;;;3.00;;
64467;SDS011;50853;46.836;16.820;2022-07-05T07:47:34;6.57;;;2.83;;
64467;SDS011;50853;46.836;16.820;2022-07-05T07:50:01;7.32;;;3.15;;
64467;SDS011;50853;46.836;16.820;2022-07-05T07:52:28;4.78;;;2.83;;
64467;SDS011;50853;46.836;16.820;2022-07-05T07:54:55;7.20;;;3.25;;
64467;SDS011;50853;46.836;16.820;2022-07-05T07:57:21;5.05;;;3.60;;
64467;SDS011;50853;46.836;16.820;2022-07-05T07:59:47;5.32;;;3.45;;
64467;SDS011;50853;46.836;16.820;2022-07-05T08:02:13;6.20;;;3.30;;
64467;SDS011;50853;46.836;16.820;2022-07-05T08:04:39;6.38;;;3.15;;
64467;SDS011;50853;46.836;16.820;2022-07-05T08:07:05;5.15;;;2.80;;
64467;SDS011;50853;46.836;16.820;2022-07-05T08:09:31;4.88;;;3.30;;
64467;SDS011;50853;46.836;16.820;2022-07-05T08:11:57;4.22;;;3.17;;
64467;SDS011;50853;46.836;16.820;2022-07-05T08:14:23;5.55;;;3.35;;
64467;SDS011;50853;46.836;16.820;2022-07-05T08:16:49;5.35;;;3.22;;
64467;SDS011;50853;46.836;16.820;2022-07-05T08:19:16;15.15;;;4.72;;
64467;SDS011;50853;46.836;16.820;2022-07-05T08:22:03;5.07;;;3.25;;
64467;SDS011;50853;46.836;16.820;2022-07-05T08:24:29;5.00;;;3.50;;
64467;SDS011;50853;46.836;16.820;2022-07-05T08:26:55;4.72;;;3.55;;
64467;SDS011;50853;46.836;16.820;2022-07-05T08:29:21;6.80;;;3.97;;
64467;SDS011;50853;46.836;16.820;2022-07-05T08:31:48;10.77;;;3.45;;
64467;SDS011;50853;46.836;16.820;2022-07-05T08:34:15;5.45;;;3.58;;
64467;SDS011;50853;46.836;16.820;2022-07-05T08:36:44;6.55;;;3.63;;
64467;SDS011;50853;46.836;16.820;2022-07-05T08:39:11;6.88;;;3.63;;
64467;SDS011;50853;46.836;16.820;2022-07-05T08:41:39;6.47;;;3.55;;
64467;SDS011;50853;46.836;16.820;2022-07-05T08:44:07;6.03;;;3.20;;
64467;SDS011;50853;46.836;16.820;2022-07-05T08:46:37;7.43;;;3.85;;
64467;SDS011;50853;46.836;16.820;2022-07-05T08:49:04;6.75;;;3.60;;
64467;SDS011;50853;46.836;16.820;2022-07-05T08:51:32;9.00;;;3.92;;
64467;SDS011;50853;46.836;16.820;2022-07-05T08:54:04;6.40;;;3.70;;
64467;SDS011;50853;46.836;16.820;2022-07-05T08:56:30;7.03;;;3.78;;
64467;SDS011;50853;46.836;16.820;2022-07-05T08:58:56;10.50;;;3.80;;
64467;SDS011;50853;46.836;16.820;2022-07-05T09:01:22;5.38;;;3.72;;
64467;SDS011;50853;46.836;16.820;2022-07-05T09:03:50;5.03;;;3.70;;
64467;SDS011;50853;46.836;16.820;2022-07-05T09:08:50;7.55;;;3.92;;
64467;SDS011;50853;46.836;16.820;2022-07-05T09:11:23;3.95;;;2.97;;
64467;SDS011;50853;46.836;16.820;2022-07-05T09:13:53;8.32;;;3.80;;
64467;SDS011;50853;46.836;16.820;2022-07-05T09:16:18;5.55;;;3.80;;
64467;SDS011;50853;46.836;16.820;2022-07-05T09:18:48;8.15;;;3.58;;
64467;SDS011;50853;46.836;16.820;2022-07-05T09:21:22;4.68;;;3.17;;
64467;SDS011;50853;46.836;16.820;2022-07-05T09:23:59;7.53;;;3.75;;
64467;SDS011;50853;46.836;16.820;2022-07-05T09:26:31;4.85;;;3.45;;
64467;SDS011;50853;46.836;16.820;2022-07-05T09:29:02;6.78;;;3.72;;
64467;SDS011;50853;46.836;16.820;2022-07-05T09:31:30;5.70;;;3.40;;
64467;SDS011;50853;46.836;16.820;2022-07-05T09:34:04;8.55;;;3.50;;
64467;SDS011;50853;46.836;16.820;2022-07-05T09:44:49;4.55;;;3.10;;
64467;SDS011;50853;46.836;16.820;2022-07-05T09:47:19;3.15;;;2.47;;
64467;SDS011;50853;46.836;16.820;2022-07-05T09:49:47;4.25;;;2.42;;
64467;SDS011;50853;46.836;16.820;2022-07-05T09:52:26;4.70;;;2.70;;
64467;SDS011;50853;46.836;16.820;2022-07-05T09:55:02;4.13;;;2.75;;
64467;SDS011;50853;46.836;16.820;2022-07-05T09:57:33;5.72;;;3.13;;
64467;SDS011;50853;46.836;16.820;2022-07-05T10:00:03;6.85;;;3.63;;
64467;SDS011;50853;46.836;16.820;2022-07-05T10:02:44;8.15;;;4.20;;
64467;SDS011;50853;46.836;16.820;2022-07-05T10:05:18;5.82;;;3.33;;
64467;SDS011;50853;46.836;16.820;2022-07-05T10:07:49;7.13;;;4.75;;
64467;SDS011;50853;46.836;16.820;2022-07-05T10:10:17;9.10;;;4.10;;
64467;SDS011;50853;46.836;16.820;2022-07-05T10:12:55;6.68;;;3.47;;
64467;SDS011;50853;46.836;16.820;2022-07-05T10:15:24;4.47;;;2.80;;
64467;SDS011;50853;46.836;16.820;2022-07-05T10:17:57;6.88;;;3.47;;
64467;SDS011;50853;46.836;16.820;2022-07-05T10:20:29;10.48;;;3.45;;
64467;SDS011;50853;46.836;16.820;2022-07-05T10:23:11;5.75;;;3.03;;
64467;SDS011;50853;46.836;16.820;2022-07-05T10:25:43;3.53;;;2.47;;
64467;SDS011;50853;46.836;16.820;2022-07-05T10:28:15;4.32;;;3.13;;
64467;SDS011;50853;46.836;16.820;2022-07-05T10:30:45;5.80;;;2.47;;
64467;SDS011;50853;46.836;16.820;2022-07-05T10:33:17;5.28;;;2.50;;
64467;SDS011;50853;46.836;16.820;2022-07-05T10:35:50;4.47;;;2.65;;
64467;SDS011;50853;46.836;16.820;2022-07-05T10:40:43;2.67;;;1.93;;
64467;SDS011;50853;46.836;16.820;2022-07-05T10:43:13;3.60;;;2.05;;
64467;SDS011;50853;46.836;16.820;2022-07-05T10:45:48;9.75;;;2.33;;
64467;SDS011;50853;46.836;16.820;2022-07-05T10:50:45;4.25;;;2.45;;
64467;SDS011;50853;46.836;16.820;2022-07-05T10:53:22;6.80;;;2.27;;
64467;SDS011;50853;46.836;16.820;2022-07-05T10:56:14;3.45;;;2.25;;
64467;SDS011;50853;46.836;16.820;2022-07-05T10:58:44;3.08;;;2.00;;
64467;SDS011;50853;46.836;16.820;2022-07-05T11:03:52;2.60;;;1.83;;
64467;SDS011;50853;46.836;16.820;2022-07-05T11:06:31;5.20;;;2.05;;
64467;SDS011;50853;46.836;16.820;2022-07-05T11:11:34;3.83;;;2.25;;
64467;SDS011;50853;46.836;16.820;2022-07-05T11:14:02;3.15;;;2.10;;
64467;SDS011;50853;46.836;16.820;2022-07-05T11:16:31;4.95;;;1.98;;
64467;SDS011;50853;46.836;16.820;2022-07-05T11:22:06;5.38;;;2.17;;
64467;SDS011;50853;46.836;16.820;2022-07-05T11:24:33;3.40;;;2.13;;
64467;SDS011;50853;46.836;16.820;2022-07-05T11:27:02;3.83;;;1.90;;
64467;SDS011;50853;46.836;16.820;2022-07-05T11:29:41;5.15;;;2.47;;
64467;SDS011;50853;46.836;16.820;2022-07-05T11:32:13;2.88;;;1.80;;
64467;SDS011;50853;46.836;16.820;2022-07-05T11:34:42;4.45;;;2.20;;
64467;SDS011;50853;46.836;16.820;2022-07-05T11:39:42;6.00;;;1.92;;
64467;SDS011;50853;46.836;16.820;2022-07-05T11:42:08;3.83;;;2.03;;
64467;SDS011;50853;46.836;16.820;2022-07-05T11:44:35;4.57;;;2.13;;
64467;SDS011;50853;46.836;16.820;2022-07-05T11:49:28;3.42;;;1.85;;
64467;SDS011;50853;46.836;16.820;2022-07-05T11:51:55;3.95;;;2.05;;
64467;SDS011;50853;46.836;16.820;2022-07-05T11:54:23;3.88;;;1.80;;
64467;SDS011;50853;46.836;16.820;2022-07-05T11:56:50;3.22;;;1.95;;
64467;SDS011;50853;46.836;16.820;2022-07-05T11:59:17;2.85;;;1.77;;
64467;SDS011;50853;46.836;16.820;2022-07-05T12:01:44;5.78;;;1.80;;
64467;SDS011;50853;46.836;16.820;2022-07-05T12:04:10;5.93;;;2.10;;
64467;SDS011;50853;46.836;16.820;2022-07-05T12:06:42;6.30;;;2.17;;
64467;SDS011;50853;46.836;16.820;2022-07-05T12:09:08;4.70;;;1.52;;
64467;SDS011;50853;46.836;16.820;2022-07-05T12:11:34;5.05;;;2.05;;
64467;SDS011;50853;46.836;16.820;2022-07-05T12:14:22;12.40;;;2.42;;
64467;SDS011;50853;46.836;16.820;2022-07-05T12:16:48;8.88;;;2.38;;
64467;SDS011;50853;46.836;16.820;2022-07-05T12:19:27;4.60;;;2.22;;
64467;SDS011;50853;46.836;16.820;2022-07-05T12:21:53;7.65;;;2.20;;
64467;SDS011;50853;46.836;16.820;2022-07-05T12:24:20;4.72;;;2.10;;
64467;SDS011;50853;46.836;16.820;2022-07-05T12:26:46;4.00;;;1.95;;
64467;SDS011;50853;46.836;16.820;2022-07-05T12:29:12;4.10;;;1.70;;
64467;SDS011;50853;46.836;16.820;2022-07-05T12:31:57;3.65;;;1.52;;
64467;SDS011;50853;46.836;16.820;2022-07-05T12:34:28;3.17;;;1.50;;
64467;SDS011;50853;46.836;16.820;2022-07-05T12:36:55;2.13;;;1.48;;
64467;SDS011;50853;46.836;16.820;2022-07-05T12:39:22;1.92;;;1.20;;
64467;SDS011;50853;46.836;16.820;2022-07-05T12:41:48;1.48;;;0.90;;
64467;SDS011;50853;46.836;16.820;2022-07-05T12:44:23;1.10;;;0.90;;
64467;SDS011;50853;46.836;16.820;2022-07-05T12:46:49;2.75;;;1.00;;
64467;SDS011;50853;46.836;16.820;2022-07-05T12:49:15;1.27;;;0.75;;
64467;SDS011;50853;46.836;16.820;2022-07-05T12:51:42;6.53;;;1.23;;
64467;SDS011;50853;46.836;16.820;2022-07-05T12:57:14;1.15;;;0.82;;
64467;SDS011;50853;46.836;16.820;2022-07-05T13:02:46;2.00;;;1.08;;
64467;SDS011;50853;46.836;16.820;2022-07-05T13:05:21;9.48;;;1.45;;
64467;SDS011;50853;46.836;16.820;2022-07-05T13:07:48;3.95;;;1.00;;
64467;SDS011;50853;46.836;16.820;2022-07-05T13:10:24;3.13;;;1.00;;
64467;SDS011;50853;46.836;16.820;2022-07-05T13:12:53;5.55;;;1.30;;
64467;SDS011;50853;46.836;16.820;2022-07-05T13:15:19;1.42;;;0.90;;
64467;SDS011;50853;46.836;16.820;2022-07-05T13:17:45;3.80;;;1.30;;
64467;SDS011;50853;46.836;16.820;2022-07-05T13:20:13;1.52;;;1.23;;
64467;SDS011;50853;46.836;16.820;2022-07-05T13:22:45;3.42;;;1.25;;
64467;SDS011;50853;46.836;16.820;2022-07-05T13:25:12;2.33;;;0.93;;
64467;SDS011;50853;46.836;16.820;2022-07-05T13:27:39;4.10;;;1.10;;
64467;SDS011;50853;46.836;16.820;2022-07-05T13:30:06;1.92;;;1.33;;
64467;SDS011;50853;46.836;16.820;2022-07-05T13:32:32;1.83;;;1.13;;
64467;SDS011;50853;46.836;16.820;2022-07-05T13:34:58;1.95;;;1.05;;
64467;SDS011;50853;46.836;16.820;2022-07-05T13:37:24;2.75;;;1.20;;
64467;SDS011;50853;46.836;16.820;2022-07-05T13:39:50;1.73;;;0.90;;
64467;SDS011;50853;46.836;16.820;2022-07-05T13:42:16;1.63;;;1.15;;
64467;SDS011;50853;46.836;16.820;2022-07-05T13:44:41;1.50;;;0.95;;
64467;SDS011;50853;46.836;16.820;2022-07-05T13:47:07;1.90;;;1.00;;
64467;SDS011;50853;46.836;16.820;2022-07-05T13:49:33;4.90;;;1.13;;
64467;SDS011;50853;46.836;16.820;2022-07-05T13:51:59;1.20;;;0.90;;
64467;SDS011;50853;46.836;16.820;2022-07-05T13:54:30;2.35;;;0.95;;
64467;SDS011;50853;46.836;16.820;2022-07-05T13:56:56;1.90;;;1.23;;
64467;SDS011;50853;46.836;16.820;2022-07-05T13:59:22;2.75;;;1.15;;
64467;SDS011;50853;46.836;16.820;2022-07-05T14:01:48;0.87;;;0.80;;
64467;SDS011;50853;46.836;16.820;2022-07-05T14:04:13;2.60;;;1.10;;
64467;SDS011;50853;46.836;16.820;2022-07-05T14:06:39;4.17;;;0.93;;
64467;SDS011;50853;46.836;16.820;2022-07-05T14:09:05;4.40;;;1.00;;
64467;SDS011;50853;46.836;16.820;2022-07-05T14:11:32;1.70;;;1.30;;
64467;SDS011;50853;46.836;16.820;2022-07-05T14:13:58;5.23;;;1.20;;
64467;SDS011;50853;46.836;16.820;2022-07-05T14:16:24;2.10;;;1.17;;
64467;SDS011;50853;46.836;16.820;2022-07-05T14:18:50;3.40;;;1.00;;
64467;SDS011;50853;46.836;16.820;2022-07-05T14:21:18;2.65;;;1.15;;
64467;SDS011;50853;46.836;16.820;2022-07-05T14:23:44;3.22;;;1.25;;
64467;SDS011;50853;46.836;16.820;2022-07-05T14:26:12;1.83;;;1.20;;
64467;SDS011;50853;46.836;16.820;2022-07-05T14:28:39;2.85;;;1.08;;
64467;SDS011;50853;46.836;16.820;2022-07-05T14:31:05;1.60;;;0.80;;
64467;SDS011;50853;46.836;16.820;2022-07-05T14:33:31;4.20;;;1.20;;
64467;SDS011;50853;46.836;16.820;2022-07-05T14:35:56;1.37;;;1.00;;
64467;SDS011;50853;46.836;16.820;2022-07-05T14:38:22;4.47;;;1.07;;
64467;SDS011;50853;46.836;16.820;2022-07-05T14:40:48;3.67;;;1.10;;
64467;SDS011;50853;46.836;16.820;2022-07-05T14:43:14;2.17;;;1.10;;
64467;SDS011;50853;46.836;16.820;2022-07-05T14:45:40;2.20;;;1.20;;
64467;SDS011;50853;46.836;16.820;2022-07-05T14:48:06;2.00;;;1.17;;
64467;SDS011;50853;46.836;16.820;2022-07-05T14:50:31;6.13;;;1.20;;
64467;SDS011;50853;46.836;16.820;2022-07-05T14:52:57;5.17;;;1.30;;
64467;SDS011;50853;46.836;16.820;2022-07-05T14:55:27;2.53;;;1.30;;
64467;SDS011;50853;46.836;16.820;2022-07-05T14:57:52;1.85;;;1.23;;
64467;SDS011;50853;46.836;16.820;2022-07-05T15:00:18;3.60;;;1.00;;
64467;SDS011;50853;46.836;16.820;2022-07-05T15:02:44;3.77;;;1.47;;
64467;SDS011;50853;46.836;16.820;2022-07-05T15:05:10;1.13;;;1.00;;
64467;SDS011;50853;46.836;16.820;2022-07-05T15:07:37;2.47;;;1.10;;
64467;SDS011;50853;46.836;16.820;2022-07-05T15:10:05;5.07;;;1.25;;
64467;SDS011;50853;46.836;16.820;2022-07-05T15:12:31;3.13;;;1.20;;
64467;SDS011;50853;46.836;16.820;2022-07-05T15:14:57;3.75;;;1.45;;
64467;SDS011;50853;46.836;16.820;2022-07-05T15:17:23;2.60;;;1.37;;
64467;SDS011;50853;46.836;16.820;2022-07-05T15:19:49;2.17;;;1.47;;
64467;SDS011;50853;46.836;16.820;2022-07-05T15:22:15;4.37;;;1.43;;
64467;SDS011;50853;46.836;16.820;2022-07-05T15:24:41;2.42;;;1.20;;
64467;SDS011;50853;46.836;16.820;2022-07-05T15:27:07;3.70;;;1.20;;
64467;SDS011;50853;46.836;16.820;2022-07-05T15:29:35;4.00;;;1.20;;
64467;SDS011;50853;46.836;16.820;2022-07-05T15:32:02;2.40;;;1.33;;
64467;SDS011;50853;46.836;16.820;2022-07-05T15:34:28;4.63;;;1.30;;
64467;SDS011;50853;46.836;16.820;2022-07-05T15:36:54;3.83;;;1.50;;